sensor_id;sensor_type;location;lat;lon;timestamp;P1;durP1;ratioP1;P2;durP2;ratioP2
41861;SDS011;27537;57.134;-2.136;2022-10-15T00:01:03;6.78;;;2.17;;
41861;SDS011;27537;57.134;-2.136;2022-10-15T00:03:31;4.70;;;2.10;;
41861;SDS011;27537;57.134;-2.136;2022-10-15T00:06:04;7.03;;;2.05;;
41861;SDS011;27537;57.134;-2.136;2022-10-15T00:08:36;4.68;;;1.73;;
41861;SDS011;27537;57.134;-2.136;2022-10-15T00:11:05;5.45;;;1.88;;
41861;SDS011;27537;57.134;-2.136;2022-10-15T00:13:34;6.00;;;1.80;;
41861;SDS011;27537;57.134;-2.136;2022-10-15T00:16:01;5.68;;;2.25;;
41861;SDS011;27537;57.134;-2.136;2022-10-15T00:18:28;6.22;;;2.03;;
41861;SDS011;27537;57.134;-2.136;2022-10-15T00:20:55;5.55;;;1.80;;
41861;SDS011;27537;57.134;-2.136;2022-10-15T00:23:22;6.50;;;2.55;;
41861;SDS011;27537;57.134;-2.136;2022-10-15T00:25:49;7.03;;;1.95;;
41861;SDS011;27537;57.134;-2.136;2022-10-15T00:28:15;4.93;;;2.00;;
41861;SDS011;27537;57.134;-2.136;2022-10-15T00:30:42;5.15;;;1.65;;
41861;SDS011;27537;57.134;-2.136;2022-10-15T00:33:09;5.47;;;1.58;;
41861;SDS011;27537;57.134;-2.136;2022-10-15T00:35:35;4.60;;;1.63;;
41861;SDS011;27537;57.134;-2.136;2022-10-15T00:38:02;3.50;;;1.38;;
41861;SDS011;27537;57.134;-2.136;2022-10-15T00:40:29;4.60;;;1.50;;
41861;SDS011;27537;57.134;-2.136;2022-10-15T00:42:56;4.28;;;1.75;;
41861;SDS011;27537;57.134;-2.136;2022-10-15T00:45:22;4.93;;;1.52;;
41861;SDS011;27537;57.134;-2.136;2022-10-15T00:47:49;3.58;;;1.30;;
41861;SDS011;27537;57.134;-2.136;2022-10-15T00:50:19;3.80;;;1.15;;
41861;SDS011;27537;57.134;-2.136;2022-10-15T00:52:55;3.15;;;1.20;;
41861;SDS011;27537;57.134;-2.136;2022-10-15T00:55:35;4.82;;;1.30;;
41861;SDS011;27537;57.134;-2.136;2022-10-15T00:58:06;4.40;;;1.40;;
41861;SDS011;27537;57.134;-2.136;2022-10-15T01:00:38;3.45;;;1.33;;
41861;SDS011;27537;57.134;-2.136;2022-10-15T01:03:04;2.08;;;1.00;;
41861;SDS011;27537;57.134;-2.136;2022-10-15T01:05:31;4.70;;;1.33;;
41861;SDS011;27537;57.134;-2.136;2022-10-15T01:08:00;4.38;;;1.30;;
41861;SDS011;27537;57.134;-2.136;2022-10-15T01:10:29;4.40;;;1.33;;
41861;SDS011;27537;57.134;-2.136;2022-10-15T01:15:55;2.30;;;1.10;;
41861;SDS011;27537;57.134;-2.136;2022-10-15T01:18:38;4.38;;;1.33;;
41861;SDS011;27537;57.134;-2.136;2022-10-15T01:29:20;5.03;;;1.50;;
41861;SDS011;27537;57.134;-2.136;2022-10-15T01:35:04;5.32;;;1.30;;
41861;SDS011;27537;57.134;-2.136;2022-10-15T01:40:16;3.95;;;1.50;;
41861;SDS011;27537;57.134;-2.136;2022-10-15T01:42:58;3.00;;;1.17;;
41861;SDS011;27537;57.134;-2.136;2022-10-15T01:45:28;5.07;;;1.35;;
41861;SDS011;27537;57.134;-2.136;2022-10-15T01:48:03;3.47;;;1.33;;
41861;SDS011;27537;57.134;-2.136;2022-10-15T01:50:34;3.15;;;1.10;;
41861;SDS011;27537;57.134;-2.136;2022-10-15T01:53:05;4.53;;;1.52;;
41861;SDS011;27537;57.134;-2.136;2022-10-15T01:55:34;3.22;;;1.45;;
41861;SDS011;27537;57.134;-2.136;2022-10-15T01:58:03;3.08;;;1.23;;
41861;SDS011;27537;57.134;-2.136;2022-10-15T02:00:31;3.58;;;1.17;;
41861;SDS011;27537;57.134;-2.136;2022-10-15T02:02:58;4.55;;;1.17;;
41861;SDS011;27537;57.134;-2.136;2022-10-15T02:05:28;3.80;;;1.30;;
41861;SDS011;27537;57.134;-2.136;2022-10-15T02:10:52;2.35;;;1.20;;
41861;SDS011;27537;57.134;-2.136;2022-10-15T02:21:43;5.18;;;1.20;;
41861;SDS011;27537;57.134;-2.136;2022-10-15T02:24:18;2.83;;;1.25;;
41861;SDS011;27537;57.134;-2.136;2022-10-15T02:26:50;3.40;;;1.10;;
41861;SDS011;27537;57.134;-2.136;2022-10-15T02:29:19;4.65;;;1.23;;
41861;SDS011;27537;57.134;-2.136;2022-10-15T02:31:48;1.35;;;1.05;;
41861;SDS011;27537;57.134;-2.136;2022-10-15T02:34:17;3.17;;;1.10;;
41861;SDS011;27537;57.134;-2.136;2022-10-15T02:36:47;2.67;;;1.10;;
41861;SDS011;27537;57.134;-2.136;2022-10-15T02:39:17;3.38;;;1.02;;
41861;SDS011;27537;57.134;-2.136;2022-10-15T02:41:47;3.63;;;1.10;;
41861;SDS011;27537;57.134;-2.136;2022-10-15T02:44:14;4.50;;;1.33;;
41861;SDS011;27537;57.134;-2.136;2022-10-15T02:46:41;3.78;;;1.30;;
41861;SDS011;27537;57.134;-2.136;2022-10-15T02:49:08;4.95;;;1.25;;
41861;SDS011;27537;57.134;-2.136;2022-10-15T02:51:38;3.15;;;1.20;;
41861;SDS011;27537;57.134;-2.136;2022-10-15T02:54:05;2.67;;;1.20;;
41861;SDS011;27537;57.134;-2.136;2022-10-15T02:56:33;4.00;;;1.00;;
41861;SDS011;27537;57.134;-2.136;2022-10-15T02:59:01;6.25;;;2.00;;
41861;SDS011;27537;57.134;-2.136;2022-10-15T03:01:28;2.88;;;1.08;;
41861;SDS011;27537;57.134;-2.136;2022-10-15T03:03:54;4.80;;;1.10;;
41861;SDS011;27537;57.134;-2.136;2022-10-15T03:06:21;4.22;;;1.33;;
41861;SDS011;27537;57.134;-2.136;2022-10-15T03:08:48;3.42;;;1.00;;
41861;SDS011;27537;57.134;-2.136;2022-10-15T03:11:14;2.67;;;0.98;;
41861;SDS011;27537;57.134;-2.136;2022-10-15T03:13:41;2.15;;;1.00;;
41861;SDS011;27537;57.134;-2.136;2022-10-15T03:16:09;3.92;;;1.92;;
41861;SDS011;27537;57.134;-2.136;2022-10-15T03:18:36;2.97;;;1.30;;
41861;SDS011;27537;57.134;-2.136;2022-10-15T03:21:06;2.85;;;1.20;;
41861;SDS011;27537;57.134;-2.136;2022-10-15T03:23:33;2.78;;;1.00;;
41861;SDS011;27537;57.134;-2.136;2022-10-15T03:26:00;3.45;;;1.20;;
41861;SDS011;27537;57.134;-2.136;2022-10-15T03:28:26;3.08;;;1.30;;
41861;SDS011;27537;57.134;-2.136;2022-10-15T03:30:53;2.53;;;1.05;;
41861;SDS011;27537;57.134;-2.136;2022-10-15T03:33:20;1.88;;;1.00;;
41861;SDS011;27537;57.134;-2.136;2022-10-15T03:35:50;2.70;;;1.05;;
41861;SDS011;27537;57.134;-2.136;2022-10-15T03:38:18;4.00;;;1.55;;
41861;SDS011;27537;57.134;-2.136;2022-10-15T03:40:45;4.43;;;1.35;;
41861;SDS011;27537;57.134;-2.136;2022-10-15T03:43:12;5.00;;;1.40;;
41861;SDS011;27537;57.134;-2.136;2022-10-15T03:45:38;6.70;;;1.50;;
41861;SDS011;27537;57.134;-2.136;2022-10-15T03:48:05;4.60;;;1.50;;
41861;SDS011;27537;57.134;-2.136;2022-10-15T03:50:33;3.20;;;1.30;;
41861;SDS011;27537;57.134;-2.136;2022-10-15T03:53:03;17.17;;;2.60;;
41861;SDS011;27537;57.134;-2.136;2022-10-15T03:55:31;4.40;;;1.60;;
41861;SDS011;27537;57.134;-2.136;2022-10-15T03:57:58;4.38;;;1.52;;
41861;SDS011;27537;57.134;-2.136;2022-10-15T04:00:25;4.40;;;1.40;;
41861;SDS011;27537;57.134;-2.136;2022-10-15T04:02:52;2.13;;;1.10;;
41861;SDS011;27537;57.134;-2.136;2022-10-15T04:05:18;4.15;;;1.45;;
41861;SDS011;27537;57.134;-2.136;2022-10-15T04:07:45;3.60;;;1.30;;
41861;SDS011;27537;57.134;-2.136;2022-10-15T04:10:12;5.18;;;1.50;;
41861;SDS011;27537;57.134;-2.136;2022-10-15T04:12:39;6.35;;;2.05;;
41861;SDS011;27537;57.134;-2.136;2022-10-15T04:15:06;3.70;;;1.50;;
41861;SDS011;27537;57.134;-2.136;2022-10-15T04:17:33;5.05;;;1.38;;
41861;SDS011;27537;57.134;-2.136;2022-10-15T04:20:00;7.10;;;1.60;;
41861;SDS011;27537;57.134;-2.136;2022-10-15T04:22:27;4.65;;;1.35;;
41861;SDS011;27537;57.134;-2.136;2022-10-15T04:24:53;3.40;;;1.30;;
41861;SDS011;27537;57.134;-2.136;2022-10-15T04:27:20;5.88;;;1.40;;
41861;SDS011;27537;57.134;-2.136;2022-10-15T04:29:47;4.07;;;1.20;;
41861;SDS011;27537;57.134;-2.136;2022-10-15T04:32:14;10.80;;;2.00;;
41861;SDS011;27537;57.134;-2.136;2022-10-15T04:34:41;8.35;;;1.77;;
41861;SDS011;27537;57.134;-2.136;2022-10-15T04:37:08;5.85;;;1.60;;
41861;SDS011;27537;57.134;-2.136;2022-10-15T04:39:34;8.15;;;1.42;;
41861;SDS011;27537;57.134;-2.136;2022-10-15T04:42:01;7.78;;;1.60;;
41861;SDS011;27537;57.134;-2.136;2022-10-15T04:44:28;9.85;;;1.83;;
41861;SDS011;27537;57.134;-2.136;2022-10-15T04:46:56;6.88;;;1.60;;
41861;SDS011;27537;57.134;-2.136;2022-10-15T04:49:23;5.63;;;1.48;;
41861;SDS011;27537;57.134;-2.136;2022-10-15T04:51:50;3.53;;;1.30;;
41861;SDS011;27537;57.134;-2.136;2022-10-15T04:54:16;8.30;;;1.70;;
41861;SDS011;27537;57.134;-2.136;2022-10-15T04:56:43;9.13;;;1.70;;
41861;SDS011;27537;57.134;-2.136;2022-10-15T04:59:10;7.45;;;1.95;;
41861;SDS011;27537;57.134;-2.136;2022-10-15T05:01:37;8.25;;;1.50;;
41861;SDS011;27537;57.134;-2.136;2022-10-15T05:04:03;8.75;;;1.38;;
41861;SDS011;27537;57.134;-2.136;2022-10-15T05:06:30;7.75;;;1.33;;
41861;SDS011;27537;57.134;-2.136;2022-10-15T05:08:58;6.55;;;1.88;;
41861;SDS011;27537;57.134;-2.136;2022-10-15T05:11:27;9.10;;;1.45;;
41861;SDS011;27537;57.134;-2.136;2022-10-15T05:13:55;4.93;;;1.40;;
41861;SDS011;27537;57.134;-2.136;2022-10-15T05:16:27;8.55;;;1.63;;
41861;SDS011;27537;57.134;-2.136;2022-10-15T05:18:56;8.60;;;1.58;;
41861;SDS011;27537;57.134;-2.136;2022-10-15T05:21:24;9.63;;;1.42;;
41861;SDS011;27537;57.134;-2.136;2022-10-15T05:23:55;10.52;;;2.10;;
41861;SDS011;27537;57.134;-2.136;2022-10-15T05:26:23;6.25;;;1.60;;
41861;SDS011;27537;57.134;-2.136;2022-10-15T05:28:51;7.53;;;1.63;;
41861;SDS011;27537;57.134;-2.136;2022-10-15T05:31:19;12.00;;;1.98;;
41861;SDS011;27537;57.134;-2.136;2022-10-15T05:33:48;8.45;;;1.58;;
41861;SDS011;27537;57.134;-2.136;2022-10-15T05:38:46;9.05;;;1.98;;
41861;SDS011;27537;57.134;-2.136;2022-10-15T05:41:14;10.70;;;1.80;;
41861;SDS011;27537;57.134;-2.136;2022-10-15T05:43:41;14.63;;;2.67;;
41861;SDS011;27537;57.134;-2.136;2022-10-15T05:46:08;9.70;;;1.85;;
41861;SDS011;27537;57.134;-2.136;2022-10-15T05:48:38;14.00;;;3.25;;
41861;SDS011;27537;57.134;-2.136;2022-10-15T05:51:06;11.63;;;2.40;;
41861;SDS011;27537;57.134;-2.136;2022-10-15T05:53:39;8.48;;;2.30;;
41861;SDS011;27537;57.134;-2.136;2022-10-15T05:56:06;13.07;;;1.80;;
41861;SDS011;27537;57.134;-2.136;2022-10-15T05:58:34;10.07;;;2.20;;
41861;SDS011;27537;57.134;-2.136;2022-10-15T06:01:04;10.15;;;2.50;;
41861;SDS011;27537;57.134;-2.136;2022-10-15T06:03:32;8.77;;;1.60;;
41861;SDS011;27537;57.134;-2.136;2022-10-15T06:06:02;12.43;;;2.22;;
41861;SDS011;27537;57.134;-2.136;2022-10-15T06:08:29;7.35;;;1.38;;
41861;SDS011;27537;57.134;-2.136;2022-10-15T06:11:03;10.65;;;1.58;;
41861;SDS011;27537;57.134;-2.136;2022-10-15T06:13:35;9.68;;;2.25;;
41861;SDS011;27537;57.134;-2.136;2022-10-15T06:16:03;11.75;;;1.92;;
41861;SDS011;27537;57.134;-2.136;2022-10-15T06:18:30;12.00;;;2.80;;
41861;SDS011;27537;57.134;-2.136;2022-10-15T06:20:58;14.60;;;2.40;;
41861;SDS011;27537;57.134;-2.136;2022-10-15T06:23:24;11.80;;;2.28;;
41861;SDS011;27537;57.134;-2.136;2022-10-15T06:25:51;12.05;;;2.13;;
41861;SDS011;27537;57.134;-2.136;2022-10-15T06:28:18;11.82;;;2.40;;
41861;SDS011;27537;57.134;-2.136;2022-10-15T06:30:45;14.65;;;3.28;;
41861;SDS011;27537;57.134;-2.136;2022-10-15T06:33:11;13.52;;;2.50;;
41861;SDS011;27537;57.134;-2.136;2022-10-15T06:35:38;13.70;;;2.75;;
41861;SDS011;27537;57.134;-2.136;2022-10-15T06:38:06;15.52;;;2.63;;
41861;SDS011;27537;57.134;-2.136;2022-10-15T06:40:33;16.15;;;2.72;;
41861;SDS011;27537;57.134;-2.136;2022-10-15T06:43:03;18.77;;;2.85;;
41861;SDS011;27537;57.134;-2.136;2022-10-15T06:45:39;18.45;;;4.25;;
41861;SDS011;27537;57.134;-2.136;2022-10-15T06:48:07;19.45;;;3.17;;
41861;SDS011;27537;57.134;-2.136;2022-10-15T06:50:35;17.13;;;3.03;;
41861;SDS011;27537;57.134;-2.136;2022-10-15T06:53:04;12.45;;;2.90;;
41861;SDS011;27537;57.134;-2.136;2022-10-15T06:55:31;17.98;;;2.63;;
41861;SDS011;27537;57.134;-2.136;2022-10-15T06:58:01;19.45;;;3.22;;
41861;SDS011;27537;57.134;-2.136;2022-10-15T07:00:28;16.67;;;3.03;;
41861;SDS011;27537;57.134;-2.136;2022-10-15T07:02:55;24.33;;;3.15;;
41861;SDS011;27537;57.134;-2.136;2022-10-15T07:05:22;19.23;;;3.70;;
41861;SDS011;27537;57.134;-2.136;2022-10-15T07:07:52;19.10;;;3.72;;
41861;SDS011;27537;57.134;-2.136;2022-10-15T07:10:21;10.93;;;2.97;;
41861;SDS011;27537;57.134;-2.136;2022-10-15T07:12:48;20.27;;;3.83;;
41861;SDS011;27537;57.134;-2.136;2022-10-15T07:15:17;21.52;;;3.72;;
41861;SDS011;27537;57.134;-2.136;2022-10-15T07:17:48;19.58;;;3.72;;
41861;SDS011;27537;57.134;-2.136;2022-10-15T07:20:16;21.95;;;4.35;;
41861;SDS011;27537;57.134;-2.136;2022-10-15T07:22:49;29.58;;;4.25;;
41861;SDS011;27537;57.134;-2.136;2022-10-15T07:25:16;15.50;;;3.40;;
41861;SDS011;27537;57.134;-2.136;2022-10-15T07:27:43;15.00;;;3.38;;
41861;SDS011;27537;57.134;-2.136;2022-10-15T07:30:12;19.15;;;3.15;;
41861;SDS011;27537;57.134;-2.136;2022-10-15T07:32:39;22.45;;;3.40;;
41861;SDS011;27537;57.134;-2.136;2022-10-15T07:35:08;18.63;;;3.17;;
41861;SDS011;27537;57.134;-2.136;2022-10-15T07:37:35;21.90;;;2.83;;
41861;SDS011;27537;57.134;-2.136;2022-10-15T07:40:02;13.75;;;3.42;;
41861;SDS011;27537;57.134;-2.136;2022-10-15T07:42:29;15.75;;;2.30;;
41861;SDS011;27537;57.134;-2.136;2022-10-15T07:44:55;13.65;;;3.45;;
41861;SDS011;27537;57.134;-2.136;2022-10-15T07:47:22;11.48;;;2.40;;
41861;SDS011;27537;57.134;-2.136;2022-10-15T07:49:49;20.10;;;3.15;;
41861;SDS011;27537;57.134;-2.136;2022-10-15T07:52:16;16.35;;;2.45;;
41861;SDS011;27537;57.134;-2.136;2022-10-15T07:54:42;14.07;;;2.60;;
41861;SDS011;27537;57.134;-2.136;2022-10-15T07:57:09;20.75;;;3.00;;
41861;SDS011;27537;57.134;-2.136;2022-10-15T07:59:36;17.92;;;2.85;;
41861;SDS011;27537;57.134;-2.136;2022-10-15T08:02:03;19.73;;;4.72;;
41861;SDS011;27537;57.134;-2.136;2022-10-15T08:04:29;16.77;;;3.22;;
41861;SDS011;27537;57.134;-2.136;2022-10-15T08:06:56;21.90;;;3.30;;
41861;SDS011;27537;57.134;-2.136;2022-10-15T08:09:23;18.02;;;3.03;;
41861;SDS011;27537;57.134;-2.136;2022-10-15T08:11:50;15.52;;;4.85;;
41861;SDS011;27537;57.134;-2.136;2022-10-15T08:14:17;17.27;;;4.28;;
41861;SDS011;27537;57.134;-2.136;2022-10-15T08:16:44;19.13;;;5.15;;
41861;SDS011;27537;57.134;-2.136;2022-10-15T08:19:10;16.70;;;5.07;;
41861;SDS011;27537;57.134;-2.136;2022-10-15T08:21:37;20.88;;;5.07;;
41861;SDS011;27537;57.134;-2.136;2022-10-15T08:24:07;18.92;;;6.18;;
41861;SDS011;27537;57.134;-2.136;2022-10-15T08:26:34;21.25;;;6.25;;
41861;SDS011;27537;57.134;-2.136;2022-10-15T08:29:01;13.35;;;5.00;;
41861;SDS011;27537;57.134;-2.136;2022-10-15T08:31:28;15.90;;;4.90;;
41861;SDS011;27537;57.134;-2.136;2022-10-15T08:33:55;11.13;;;3.22;;
41861;SDS011;27537;57.134;-2.136;2022-10-15T08:36:22;12.77;;;3.50;;
41861;SDS011;27537;57.134;-2.136;2022-10-15T08:38:48;16.02;;;3.88;;
41861;SDS011;27537;57.134;-2.136;2022-10-15T08:41:21;13.48;;;3.30;;
41861;SDS011;27537;57.134;-2.136;2022-10-15T08:43:53;15.48;;;4.35;;
41861;SDS011;27537;57.134;-2.136;2022-10-15T08:49:00;9.32;;;2.88;;
41861;SDS011;27537;57.134;-2.136;2022-10-15T08:51:38;13.68;;;2.97;;
41861;SDS011;27537;57.134;-2.136;2022-10-15T08:54:12;11.15;;;2.70;;
41861;SDS011;27537;57.134;-2.136;2022-10-15T08:56:44;9.50;;;2.80;;
41861;SDS011;27537;57.134;-2.136;2022-10-15T09:02:01;8.55;;;2.03;;
41861;SDS011;27537;57.134;-2.136;2022-10-15T09:05:02;9.68;;;2.00;;
41861;SDS011;27537;57.134;-2.136;2022-10-15T09:10:42;7.88;;;2.08;;
41861;SDS011;27537;57.134;-2.136;2022-10-15T09:13:11;7.78;;;2.20;;
41861;SDS011;27537;57.134;-2.136;2022-10-15T09:15:50;19.50;;;3.43;;
41861;SDS011;27537;57.134;-2.136;2022-10-15T09:18:23;7.85;;;2.20;;
41861;SDS011;27537;57.134;-2.136;2022-10-15T09:20:52;8.85;;;2.78;;
41861;SDS011;27537;57.134;-2.136;2022-10-15T09:23:21;9.85;;;2.03;;
41861;SDS011;27537;57.134;-2.136;2022-10-15T09:25:54;9.65;;;2.45;;
41861;SDS011;27537;57.134;-2.136;2022-10-15T09:31:28;9.40;;;1.77;;
41861;SDS011;27537;57.134;-2.136;2022-10-15T09:34:09;10.48;;;2.95;;
41861;SDS011;27537;57.134;-2.136;2022-10-15T09:36:48;7.32;;;2.42;;
41861;SDS011;27537;57.134;-2.136;2022-10-15T09:42:26;10.32;;;2.80;;
41861;SDS011;27537;57.134;-2.136;2022-10-15T09:44:57;6.65;;;2.50;;
41861;SDS011;27537;57.134;-2.136;2022-10-15T09:47:31;12.40;;;1.92;;
41861;SDS011;27537;57.134;-2.136;2022-10-15T09:50:00;8.43;;;1.90;;
41861;SDS011;27537;57.134;-2.136;2022-10-15T09:57:57;5.97;;;2.10;;
41861;SDS011;27537;57.134;-2.136;2022-10-15T10:03:34;5.82;;;1.85;;
41861;SDS011;27537;57.134;-2.136;2022-10-15T10:06:03;9.23;;;2.22;;
41861;SDS011;27537;57.134;-2.136;2022-10-15T10:08:46;5.03;;;1.80;;
41861;SDS011;27537;57.134;-2.136;2022-10-15T10:11:25;4.15;;;1.42;;
41861;SDS011;27537;57.134;-2.136;2022-10-15T10:13:53;11.27;;;1.67;;
41861;SDS011;27537;57.134;-2.136;2022-10-15T10:16:22;3.55;;;1.30;;
41861;SDS011;27537;57.134;-2.136;2022-10-15T10:19:03;6.65;;;2.08;;
41861;SDS011;27537;57.134;-2.136;2022-10-15T10:21:36;5.28;;;1.20;;
41861;SDS011;27537;57.134;-2.136;2022-10-15T10:26:56;4.13;;;1.30;;
41861;SDS011;27537;57.134;-2.136;2022-10-15T10:29:23;2.47;;;1.20;;
41861;SDS011;27537;57.134;-2.136;2022-10-15T10:32:10;4.60;;;1.42;;
41861;SDS011;27537;57.134;-2.136;2022-10-15T10:34:44;3.03;;;1.30;;
41861;SDS011;27537;57.134;-2.136;2022-10-15T10:37:17;3.13;;;1.30;;
41861;SDS011;27537;57.134;-2.136;2022-10-15T10:39:44;3.10;;;1.15;;
41861;SDS011;27537;57.134;-2.136;2022-10-15T10:44:45;2.25;;;1.02;;
41861;SDS011;27537;57.134;-2.136;2022-10-15T10:49:44;4.13;;;1.17;;
41861;SDS011;27537;57.134;-2.136;2022-10-15T10:55:05;3.15;;;1.30;;
41861;SDS011;27537;57.134;-2.136;2022-10-15T10:57:43;2.75;;;1.10;;
41861;SDS011;27537;57.134;-2.136;2022-10-15T11:00:19;2.47;;;1.10;;
41861;SDS011;27537;57.134;-2.136;2022-10-15T11:02:50;3.00;;;1.10;;
41861;SDS011;27537;57.134;-2.136;2022-10-15T11:05:21;3.72;;;1.50;;
41861;SDS011;27537;57.134;-2.136;2022-10-15T11:07:59;2.20;;;1.10;;
41861;SDS011;27537;57.134;-2.136;2022-10-15T11:19:58;4.85;;;0.90;;
41861;SDS011;27537;57.134;-2.136;2022-10-15T11:25:51;4.25;;;1.20;;
41861;SDS011;27537;57.134;-2.136;2022-10-15T11:28:43;3.25;;;1.20;;
41861;SDS011;27537;57.134;-2.136;2022-10-15T11:37:24;1.85;;;1.00;;
41861;SDS011;27537;57.134;-2.136;2022-10-15T11:40:10;2.53;;;1.00;;
41861;SDS011;27537;57.134;-2.136;2022-10-15T11:43:06;2.03;;;1.00;;
41861;SDS011;27537;57.134;-2.136;2022-10-15T11:48:39;2.40;;;1.10;;
41861;SDS011;27537;57.134;-2.136;2022-10-15T11:51:32;3.47;;;1.10;;
41861;SDS011;27537;57.134;-2.136;2022-10-15T11:54:25;2.25;;;1.00;;
41861;SDS011;27537;57.134;-2.136;2022-10-15T11:56:59;1.67;;;0.97;;
41861;SDS011;27537;57.134;-2.136;2022-10-15T12:02:05;2.97;;;0.90;;
41861;SDS011;27537;57.134;-2.136;2022-10-15T12:07:24;3.45;;;1.10;;
41861;SDS011;27537;57.134;-2.136;2022-10-15T12:09:59;1.73;;;1.10;;
41861;SDS011;27537;57.134;-2.136;2022-10-15T12:24:03;2.42;;;1.02;;
41861;SDS011;27537;57.134;-2.136;2022-10-15T12:26:36;1.17;;;0.75;;
41861;SDS011;27537;57.134;-2.136;2022-10-15T12:29:04;2.10;;;0.80;;
41861;SDS011;27537;57.134;-2.136;2022-10-15T12:34:29;2.58;;;0.90;;
41861;SDS011;27537;57.134;-2.136;2022-10-15T12:37:27;1.77;;;0.80;;
41861;SDS011;27537;57.134;-2.136;2022-10-15T12:39:54;1.10;;;0.75;;
41861;SDS011;27537;57.134;-2.136;2022-10-15T12:42:27;0.95;;;0.80;;
41861;SDS011;27537;57.134;-2.136;2022-10-15T12:45:00;1.80;;;0.90;;
41861;SDS011;27537;57.134;-2.136;2022-10-15T12:50:30;1.52;;;0.80;;
41861;SDS011;27537;57.134;-2.136;2022-10-15T12:53:02;0.63;;;0.63;;
41861;SDS011;27537;57.134;-2.136;2022-10-15T13:00:45;1.83;;;0.80;;
41861;SDS011;27537;57.134;-2.136;2022-10-15T13:08:50;1.98;;;0.80;;
41861;SDS011;27537;57.134;-2.136;2022-10-15T13:11:29;2.67;;;0.93;;
41861;SDS011;27537;57.134;-2.136;2022-10-15T13:14:02;1.98;;;0.85;;
41861;SDS011;27537;57.134;-2.136;2022-10-15T13:16:43;1.65;;;0.80;;
41861;SDS011;27537;57.134;-2.136;2022-10-15T13:19:22;1.80;;;0.82;;
41861;SDS011;27537;57.134;-2.136;2022-10-15T13:21:54;2.15;;;0.80;;
41861;SDS011;27537;57.134;-2.136;2022-10-15T13:24:23;2.67;;;0.90;;
41861;SDS011;27537;57.134;-2.136;2022-10-15T13:26:53;1.23;;;0.70;;
41861;SDS011;27537;57.134;-2.136;2022-10-15T13:29:22;1.38;;;0.80;;
41861;SDS011;27537;57.134;-2.136;2022-10-15T13:31:51;1.95;;;0.90;;
41861;SDS011;27537;57.134;-2.136;2022-10-15T13:34:24;1.45;;;0.77;;
41861;SDS011;27537;57.134;-2.136;2022-10-15T13:36:52;0.98;;;0.80;;
41861;SDS011;27537;57.134;-2.136;2022-10-15T13:39:22;2.85;;;0.88;;
41861;SDS011;27537;57.134;-2.136;2022-10-15T13:41:51;2.67;;;0.90;;
41861;SDS011;27537;57.134;-2.136;2022-10-15T13:44:31;1.00;;;0.70;;
41861;SDS011;27537;57.134;-2.136;2022-10-15T13:46:58;1.02;;;0.80;;
41861;SDS011;27537;57.134;-2.136;2022-10-15T13:49:24;1.98;;;0.90;;
41861;SDS011;27537;57.134;-2.136;2022-10-15T13:51:54;1.45;;;0.95;;
41861;SDS011;27537;57.134;-2.136;2022-10-15T13:54:26;2.67;;;0.90;;
41861;SDS011;27537;57.134;-2.136;2022-10-15T13:56:57;6.20;;;1.27;;
41861;SDS011;27537;57.134;-2.136;2022-10-15T13:59:27;3.92;;;1.05;;
41861;SDS011;27537;57.134;-2.136;2022-10-15T14:01:56;3.15;;;1.10;;
41861;SDS011;27537;57.134;-2.136;2022-10-15T14:04:27;2.17;;;1.02;;
41861;SDS011;27537;57.134;-2.136;2022-10-15T14:07:02;4.75;;;1.50;;
41861;SDS011;27537;57.134;-2.136;2022-10-15T14:09:44;3.20;;;1.20;;
41861;SDS011;27537;57.134;-2.136;2022-10-15T14:12:12;3.08;;;1.10;;
41861;SDS011;27537;57.134;-2.136;2022-10-15T14:14:41;2.80;;;0.93;;
41861;SDS011;27537;57.134;-2.136;2022-10-15T14:17:20;1.45;;;0.90;;
41861;SDS011;27537;57.134;-2.136;2022-10-15T14:19:53;2.60;;;0.98;;
41861;SDS011;27537;57.134;-2.136;2022-10-15T14:22:47;1.73;;;0.90;;
41861;SDS011;27537;57.134;-2.136;2022-10-15T14:25:14;2.83;;;1.23;;
41861;SDS011;27537;57.134;-2.136;2022-10-15T14:27:51;3.25;;;1.02;;
41861;SDS011;27537;57.134;-2.136;2022-10-15T14:30:26;5.03;;;0.85;;
41861;SDS011;27537;57.134;-2.136;2022-10-15T14:32:57;2.58;;;0.90;;
41861;SDS011;27537;57.134;-2.136;2022-10-15T14:35:33;1.88;;;0.80;;
41861;SDS011;27537;57.134;-2.136;2022-10-15T14:38:02;2.63;;;1.00;;
41861;SDS011;27537;57.134;-2.136;2022-10-15T14:40:29;2.75;;;1.10;;
41861;SDS011;27537;57.134;-2.136;2022-10-15T14:43:06;2.40;;;1.00;;
41861;SDS011;27537;57.134;-2.136;2022-10-15T14:45:42;1.60;;;0.82;;
41861;SDS011;27537;57.134;-2.136;2022-10-15T14:48:25;2.63;;;1.10;;
41861;SDS011;27537;57.134;-2.136;2022-10-15T14:50:56;3.30;;;1.52;;
41861;SDS011;27537;57.134;-2.136;2022-10-15T14:53:29;4.90;;;1.48;;
41861;SDS011;27537;57.134;-2.136;2022-10-15T14:56:06;4.07;;;1.20;;
41861;SDS011;27537;57.134;-2.136;2022-10-15T14:58:39;10.30;;;3.17;;
41861;SDS011;27537;57.134;-2.136;2022-10-15T15:01:17;3.00;;;1.05;;
41861;SDS011;27537;57.134;-2.136;2022-10-15T15:03:49;3.97;;;1.10;;
41861;SDS011;27537;57.134;-2.136;2022-10-15T15:06:19;3.85;;;1.27;;
41861;SDS011;27537;57.134;-2.136;2022-10-15T15:08:46;2.92;;;1.00;;
41861;SDS011;27537;57.134;-2.136;2022-10-15T15:11:14;3.63;;;1.00;;
41861;SDS011;27537;57.134;-2.136;2022-10-15T15:13:44;7.72;;;1.23;;
41861;SDS011;27537;57.134;-2.136;2022-10-15T15:16:12;1.60;;;0.82;;
41861;SDS011;27537;57.134;-2.136;2022-10-15T15:18:41;3.60;;;1.10;;
41861;SDS011;27537;57.134;-2.136;2022-10-15T15:21:16;3.00;;;0.80;;
41861;SDS011;27537;57.134;-2.136;2022-10-15T15:23:47;3.30;;;1.00;;
41861;SDS011;27537;57.134;-2.136;2022-10-15T15:26:14;5.53;;;1.20;;
41861;SDS011;27537;57.134;-2.136;2022-10-15T15:28:41;4.80;;;1.40;;
41861;SDS011;27537;57.134;-2.136;2022-10-15T15:31:12;4.55;;;1.23;;
41861;SDS011;27537;57.134;-2.136;2022-10-15T15:33:41;2.55;;;1.00;;
41861;SDS011;27537;57.134;-2.136;2022-10-15T15:36:09;3.55;;;1.30;;
41861;SDS011;27537;57.134;-2.136;2022-10-15T15:38:41;3.30;;;1.30;;
41861;SDS011;27537;57.134;-2.136;2022-10-15T15:43:46;4.72;;;1.30;;
41861;SDS011;27537;57.134;-2.136;2022-10-15T15:46:13;3.25;;;1.10;;
41861;SDS011;27537;57.134;-2.136;2022-10-15T15:48:40;5.47;;;1.40;;
41861;SDS011;27537;57.134;-2.136;2022-10-15T15:51:15;4.05;;;1.20;;
41861;SDS011;27537;57.134;-2.136;2022-10-15T15:53:46;6.53;;;1.38;;
41861;SDS011;27537;57.134;-2.136;2022-10-15T15:56:13;4.82;;;1.15;;
41861;SDS011;27537;57.134;-2.136;2022-10-15T15:58:40;5.53;;;1.27;;
41861;SDS011;27537;57.134;-2.136;2022-10-15T16:01:07;2.33;;;1.10;;
41861;SDS011;27537;57.134;-2.136;2022-10-15T16:03:34;3.90;;;1.30;;
41861;SDS011;27537;57.134;-2.136;2022-10-15T16:06:03;6.03;;;1.75;;
41861;SDS011;27537;57.134;-2.136;2022-10-15T16:08:32;5.70;;;1.60;;
41861;SDS011;27537;57.134;-2.136;2022-10-15T16:11:03;6.07;;;1.50;;
41861;SDS011;27537;57.134;-2.136;2022-10-15T16:13:31;5.60;;;1.48;;
41861;SDS011;27537;57.134;-2.136;2022-10-15T16:15:58;4.93;;;1.38;;
41861;SDS011;27537;57.134;-2.136;2022-10-15T16:18:25;3.80;;;1.20;;
41861;SDS011;27537;57.134;-2.136;2022-10-15T16:20:51;4.43;;;1.20;;
41861;SDS011;27537;57.134;-2.136;2022-10-15T16:23:18;1.50;;;0.90;;
41861;SDS011;27537;57.134;-2.136;2022-10-15T16:25:45;4.82;;;1.58;;
41861;SDS011;27537;57.134;-2.136;2022-10-15T16:28:11;3.80;;;1.17;;
41861;SDS011;27537;57.134;-2.136;2022-10-15T16:30:38;2.60;;;1.00;;
41861;SDS011;27537;57.134;-2.136;2022-10-15T16:33:05;6.53;;;1.55;;
41861;SDS011;27537;57.134;-2.136;2022-10-15T16:35:32;6.53;;;1.65;;
41861;SDS011;27537;57.134;-2.136;2022-10-15T16:37:58;4.72;;;1.40;;
41861;SDS011;27537;57.134;-2.136;2022-10-15T16:40:26;5.63;;;1.73;;
41861;SDS011;27537;57.134;-2.136;2022-10-15T16:42:53;4.18;;;1.20;;
41861;SDS011;27537;57.134;-2.136;2022-10-15T16:45:19;5.10;;;1.58;;
41861;SDS011;27537;57.134;-2.136;2022-10-15T16:47:46;5.15;;;1.60;;
41861;SDS011;27537;57.134;-2.136;2022-10-15T16:50:14;3.78;;;1.30;;